Time;durP1;ratioP1;P1;durP2;ratioP2;P2;SDS_P1;SDS_P2;PMS_P1;PMS_P2;Temp;Humidity;BMP_temperature;BMP_pressure;BME280_temperature;BME280_humidity;BME280_pressure;Samples;Min_cycle;Max_cycle;Signal;HPM_P1;HPM_P2
2024/01/08 00:00:53;;;;;;;;;;;-1.70;48.20;;;-3.71;58.54;102461.50;12248751;19;20326;-87
2024/01/08 00:04:54;;;;;;;;;;;-1.60;49.00;;;-3.78;58.57;102450.22;12249315;19;19915;-86
2024/01/08 00:08:56;;;;;;;;;;;-1.80;48.60;;;-3.87;58.56;102437.16;12248099;19;20349;-86
2024/01/08 00:12:57;;;;;;;;;;;-1.80;49.50;;;-3.73;58.46;102463.97;12245952;19;20239;-86
2024/01/08 00:16:59;;;;;;;;;;;-1.40;49.90;;;-3.80;58.55;102462.06;12243208;19;19946;-86
2024/01/08 00:21:02;;;;;;;;;;;-1.80;49.30;;;-3.89;58.54;102444.78;12248036;19;19938;-87
2024/01/08 00:25:04;;;;;;;;;;;-1.80;49.40;;;-3.73;58.44;102468.22;12247837;19;19918;-86
2024/01/08 00:29:06;;;;;;;;;;;-1.80;49.00;;;-3.85;58.26;102466.16;12245792;19;20318;-86
2024/01/08 00:33:08;;;;;;;;;;;-1.90;47.70;;;-4.18;58.23;102420.88;12247302;19;19935;-86
2024/01/08 00:37:09;;;;;;;;;;;-1.90;47.50;;;-3.95;58.42;102475.19;12246266;19;19911;-86
2024/01/08 00:41:11;;;;;;;;;;;-1.90;48.20;;;-3.98;58.47;102466.59;12247157;19;19946;-86
2024/01/08 00:45:12;;;;;;;;;;;-2.00;48.80;;;-4.16;58.51;102442.19;12244401;19;19926;-86
2024/01/08 00:49:14;;;;;;;;;;;-2.00;49.00;;;-3.90;58.44;102480.47;12245483;19;19932;-86
2024/01/08 00:53:16;;;;;;;;;;;-1.60;49.50;;;-3.96;58.43;102486.22;12245884;19;19943;-87
2024/01/08 00:57:17;;;;;;;;;;;-1.90;49.40;;;-4.01;58.45;102475.00;12245092;19;19917;-86
2024/01/08 01:01:20;;;;;;;;;;;-2.00;49.00;;;-4.26;58.42;102435.94;12253533;19;19947;-86
2024/01/08 01:05:22;;;;;;;;;;;-2.00;48.70;;;-4.11;58.38;102476.38;12258217;19;19914;-86
2024/01/08 01:09:23;;;;;;;;;;;-2.00;49.30;;;-4.54;58.38;102413.72;12257988;19;19922;-86
2024/01/08 01:13:25;;;;;;;;;;;-2.00;48.40;;;-4.18;58.39;102473.59;12259835;19;19915;-86
2024/01/08 01:17:28;;;;;;;;;;;-2.00;48.80;;;-4.18;58.42;102494.84;12255865;19;19923;-86
2024/01/08 01:21:29;;;;;;;;;;;-2.10;48.80;;;-4.16;58.56;102500.84;12258534;19;19918;-87
2024/01/08 01:25:30;;;;;;;;;;;-2.10;48.00;;;-4.43;58.60;102462.53;12258014;19;19919;-86
2024/01/08 01:29:32;;;;;;;;;;;-2.10;49.00;;;-4.31;58.41;102482.50;12258256;19;19983;-86
2024/01/08 01:33:33;;;;;;;;;;;-2.00;48.70;;;-4.23;58.52;102501.47;12256501;19;19922;-86
2024/01/08 01:37:35;;;;;;;;;;;-2.10;48.70;;;-4.25;58.48;102491.22;12254913;19;19919;-86
2024/01/08 01:41:37;;;;;;;;;;;-2.10;49.30;;;-4.04;58.50;102523.38;12252475;19;19925;-86
2024/01/08 01:45:38;;;;;;;;;;;-2.10;49.20;;;-4.11;58.33;102516.31;12252610;19;19918;-87
2024/01/08 01:49:40;;;;;;;;;;;-2.10;49.80;;;-4.15;58.32;102529.78;12253828;19;19925;-87
2024/01/08 01:53:42;;;;;;;;;;;-2.10;49.70;;;-4.16;58.34;102520.38;12253146;19;19919;-87
2024/01/08 01:57:43;;;;;;;;;;;-2.10;49.80;;;-4.28;58.35;102497.91;12250520;19;20257;-86
2024/01/08 02:01:45;;;;;;;;;;;-2.10;49.90;;;-4.12;58.36;102533.31;12253687;19;19915;-86
2024/01/08 02:05:46;;;;;;;;;;;-2.10;49.90;;;-4.19;58.32;102522.84;12246525;19;19923;-86
2024/01/08 02:09:48;;;;;;;;;;;-2.20;49.10;;;-4.25;58.31;102528.59;12251223;19;20329;-86
2024/01/08 02:13:49;;;;;;;;;;;-2.20;49.30;;;-4.30;58.32;102535.22;12249425;19;19990;-86
2024/01/08 02:17:51;;;;;;;;;;;-2.20;49.60;;;-4.50;58.29;102503.94;12249639;19;19998;-86
2024/01/08 02:21:53;;;;;;;;;;;-2.00;48.90;;;-4.41;58.30;102539.94;12253406;19;19915;-87
2024/01/08 02:25:55;;;;;;;;;;;-2.30;47.40;;;-4.53;58.26;102529.31;12249631;19;19919;-86
2024/01/08 02:29:56;;;;;;;;;;;-2.40;47.50;;;-4.59;58.38;102539.28;12251131;19;19925;-87
2024/01/08 02:33:57;;;;;;;;;;;-2.40;47.80;;;-4.66;58.43;102530.56;12253535;19;19907;-87
2024/01/08 02:37:59;;;;;;;;;;;-2.50;48.60;;;-4.95;58.36;102491.25;12249002;19;20333;-87
2024/01/08 02:42:00;;;;;;;;;;;-2.50;47.90;;;-4.72;58.30;102530.34;12253447;19;19924;-86
2024/01/08 02:46:02;;;;;;;;;;;-2.40;48.10;;;-4.64;58.36;102558.63;12250575;19;19922;-86
2024/01/08 02:50:05;;;;;;;;;;;-2.60;48.40;;;-4.65;58.30;102574.75;12251840;19;19936;-86
2024/01/08 02:54:06;;;;;;;;;;;-2.60;47.00;;;-5.22;58.34;102491.09;12253001;19;19914;-86
2024/01/08 02:58:09;;;;;;;;;;;-2.60;47.20;;;-4.86;58.26;102556.97;12248948;19;20361;-86
2024/01/08 03:02:10;;;;;;;;;;;-2.60;46.90;;;-4.74;58.26;102590.56;12253037;19;19919;-87
2024/01/08 03:06:12;;;;;;;;;;;-2.60;47.60;;;-4.77;58.35;102588.75;12251050;19;19922;-86
2024/01/08 03:10:13;;;;;;;;;;;-2.70;47.90;;;-4.77;58.22;102595.53;12250246;19;19937;-86
2024/01/08 03:14:15;;;;;;;;;;;-2.70;48.50;;;-4.83;58.25;102600.38;12250842;19;19940;-86
2024/01/08 03:18:16;;;;;;;;;;;-2.30;49.00;;;-4.93;58.25;102583.91;12247753;19;19936;-86
2024/01/08 03:22:18;;;;;;;;;;;-2.70;48.10;;;-4.86;58.25;102603.72;12247651;19;20322;-87
2024/01/08 03:26:19;;;;;;;;;;;-2.70;48.20;;;-5.10;58.17;102573.06;12249909;19;19923;-86
2024/01/08 03:30:21;;;;;;;;;;;-2.80;46.90;;;-5.15;58.05;102567.78;12247203;19;19915;-86
2024/01/08 03:34:23;;;;;;;;;;;-2.80;48.40;;;-4.93;58.23;102605.13;12249162;19;20335;-87
2024/01/08 03:38:25;;;;;;;;;;;-2.80;48.50;;;-4.94;58.13;102602.50;12244691;19;19936;-87
2024/01/08 03:42:26;;;;;;;;;;;-2.80;47.70;;;-5.00;58.29;102610.78;12247843;19;19918;-86
2024/01/08 03:46:27;;;;;;;;;;;-2.80;48.50;;;-5.40;58.20;102555.78;12247954;19;19914;-87
2024/01/08 03:50:29;;;;;;;;;;;-2.80;47.30;;;-4.99;58.13;102620.19;12246972;19;20273;-87
2024/01/08 03:54:30;;;;;;;;;;;-2.80;47.30;;;-5.23;58.21;102602.25;12248734;19;20006;-87
2024/01/08 03:58:31;;;;;;;;;;;-2.90;48.20;;;-4.98;58.20;102649.06;12245701;19;19937;-87
2024/01/08 04:02:33;;;;;;;;;;;-2.70;48.20;;;-5.06;58.16;102641.13;12248121;19;19947;-87
2024/01/08 04:06:35;;;;;;;;;;;-2.90;47.90;;;-5.31;58.13;102587.50;12244549;19;19933;-87
2024/01/08 04:10:37;;;;;;;;;;;-2.90;48.60;;;-5.19;58.17;102614.28;12245700;19;19922;-87
2024/01/08 04:14:39;;;;;;;;;;;-2.70;49.20;;;-5.02;58.15;102663.38;12246670;19;19915;-87
2024/01/08 04:18:40;;;;;;;;;;;-2.90;48.60;;;-4.99;58.32;102675.38;12244510;19;20324;-87
2024/01/08 04:22:44;;;;;;;;;;;-2.90;48.80;;;-5.14;58.21;102647.59;12247556;19;19923;-87
2024/01/08 04:26:46;;;;;;;;;;;-2.90;48.10;;;-5.12;58.24;102649.38;12243039;19;19922;-87
2024/01/08 04:30:47;;;;;;;;;;;-2.90;48.40;;;-5.26;58.24;102625.06;12246794;19;19925;-87
2024/01/08 04:34:49;;;;;;;;;;;-2.60;48.80;;;-5.03;58.28;102661.63;12248232;19;19960;-87
2024/01/08 04:38:50;;;;;;;;;;;-2.90;48.80;;;-5.05;58.17;102654.72;12255089;19;20313;-87
2024/01/08 04:42:52;;;;;;;;;;;-2.50;48.20;;;-5.03;58.14;102664.16;12257037;19;19983;-87
2024/01/08 04:46:53;;;;;;;;;;;-2.90;48.00;;;-5.37;58.14;102619.53;12254845;19;20326;-87
2024/01/08 04:50:55;;;;;;;;;;;-2.90;48.80;;;-5.07;58.17;102658.91;12255104;19;19939;-86
2024/01/08 04:54:56;;;;;;;;;;;-2.90;48.70;;;-4.95;57.91;102695.03;12255445;19;19923;-87
2024/01/08 04:58:58;;;;;;;;;;;-2.70;49.20;;;-5.21;58.26;102656.66;12255806;19;19919;-87
2024/01/08 05:02:59;;;;;;;;;;;-2.90;49.20;;;-5.07;58.14;102680.16;12256004;19;19992;-87
2024/01/08 05:07:01;;;;;;;;;;;-2.80;49.30;;;-5.30;58.15;102656.28;12253874;19;19946;-86
2024/01/08 05:11:02;;;;;;;;;;;-2.90;49.10;;;-4.98;58.27;102705.97;12252833;19;19918;-87
2024/01/08 05:15:04;;;;;;;;;;;-2.90;48.30;;;-5.06;58.30;102702.25;12255604;19;19923;-87
2024/01/08 05:19:06;;;;;;;;;;;-2.90;48.50;;;-5.07;58.20;102700.53;12255389;19;19926;-87
2024/01/08 05:23:07;;;;;;;;;;;-2.90;48.60;;;-4.97;58.28;102715.38;12255311;19;19923;-87
2024/01/08 05:27:09;;;;;;;;;;;-2.90;48.50;;;-5.00;58.21;102711.81;12252314;19;19911;-87
2024/01/08 05:31:10;;;;;;;;;;;-2.90;48.90;;;-4.97;58.31;102724.69;12252290;19;19915;-87
2024/01/08 05:35:12;;;;;;;;;;;-2.70;49.10;;;-5.00;58.31;102724.56;12250240;19;19988;-86
2024/01/08 05:39:16;;;;;;;;;;;-2.90;48.80;;;-5.19;58.24;102689.81;12253818;19;19943;-87
2024/01/08 05:43:17;;;;;;;;;;;-2.90;48.80;;;-5.20;58.14;102688.09;12253596;19;19989;-87
2024/01/08 05:47:19;;;;;;;;;;;-2.90;49.50;;;-5.06;58.25;102701.38;12251259;19;19907;-87
2024/01/08 05:51:20;;;;;;;;;;;-2.90;49.50;;;-5.03;58.18;102707.47;12251409;19;20003;-87
2024/01/08 05:55:22;;;;;;;;;;;-2.90;49.00;;;-5.18;58.23;102684.81;12252378;19;19935;-87
2024/01/08 05:59:24;;;;;;;;;;;-2.90;49.50;;;-4.91;58.23;102733.47;12253810;19;19932;-87
2024/01/08 06:03:25;;;;;;;;;;;-2.80;49.60;;;-5.58;58.12;102632.22;12253510;19;19961;-87
2024/01/08 06:07:27;;;;;;;;;;;-2.80;49.70;;;-5.23;58.18;102693.06;12251440;19;19935;-87
2024/01/08 06:11:29;;;;;;;;;;;-2.80;49.70;;;-4.98;58.24;102731.44;12251577;19;19926;-87
2024/01/08 06:15:30;;;;;;;;;;;-2.60;49.70;;;-4.95;58.27;102746.84;12251269;19;19917;-87
2024/01/08 06:19:31;;;;;;;;;;;-2.80;49.70;;;-4.95;58.19;102738.34;12253977;19;19926;-87
2024/01/08 06:23:33;;;;;;;;;;;-2.80;49.70;;;-5.03;58.14;102738.03;12253738;19;19922;-87
2024/01/08 06:27:34;;;;;;;;;;;-2.80;49.40;;;-5.19;58.15;102712.75;12250093;19;19935;-87
2024/01/08 06:31:36;;;;;;;;;;;-2.80;48.90;;;-5.06;58.17;102753.19;12251205;19;19942;-87
2024/01/08 06:35:40;;;;;;;;;;;-2.80;49.70;;;-5.00;58.24;102773.81;12252782;19;19918;-87
2024/01/08 06:39:41;;;;;;;;;;;-2.80;49.80;;;-5.11;58.15;102764.84;12256300;19;19958;-87
2024/01/08 06:43:42;;;;;;;;;;;-2.80;49.60;;;-5.12;58.13;102763.13;12256429;19;19907;-87
2024/01/08 06:47:44;;;;;;;;;;;-2.50;49.30;;;-5.11;58.14;102773.38;12257229;19;19922;-87
2024/01/08 06:51:45;;;;;;;;;;;-2.90;49.50;;;-4.99;58.28;102795.09;12250163;19;19921;-87
2024/01/08 06:55:47;;;;;;;;;;;-2.90;49.40;;;-5.02;58.20;102795.84;12251885;19;20326;-87
2024/01/08 06:59:49;;;;;;;;;;;-2.90;49.70;;;-5.01;58.27;102800.09;12249788;19;20265;-88
2024/01/08 07:03:50;;;;;;;;;;;-2.90;49.60;;;-5.00;58.24;102812.03;12252399;19;19915;-87
2024/01/08 07:07:53;;;;;;;;;;;-2.50;49.80;;;-5.04;58.37;102809.31;12254341;19;19919;-87
2024/01/08 07:11:55;;;;;;;;;;;-2.70;49.70;;;-5.36;58.18;102761.28;12248683;19;19915;-87
2024/01/08 07:15:56;;;;;;;;;;;-2.60;49.80;;;-5.50;58.31;102741.13;12252925;19;19943;-87
2024/01/08 07:19:57;;;;;;;;;;;-2.90;49.70;;;-5.04;58.20;102822.91;12252096;19;19982;-89
2024/01/08 07:23:59;;;;;;;;;;;-2.90;49.50;;;-5.01;58.24;102833.22;12251081;19;19923;-89
2024/01/08 07:28:00;;;;;;;;;;;-2.90;49.80;;;-5.03;58.23;102824.63;12250525;19;19925;-87
2024/01/08 07:32:02;;;;;;;;;;;-2.80;49.90;;;-4.91;58.13;102844.69;12247968;19;19922;-89
2024/01/08 07:36:04;;;;;;;;;;;-2.80;50.10;;;-4.99;58.21;102851.13;12248459;19;20352;-87
2024/01/08 07:40:07;;;;;;;;;;;-2.90;49.70;;;-4.94;58.20;102853.06;12250916;19;20017;-88
2024/01/08 07:44:08;;;;;;;;;;;-2.90;49.90;;;-4.94;58.16;102873.44;12250491;19;19921;-87
2024/01/08 07:48:10;;;;;;;;;;;-2.90;49.80;;;-5.04;58.35;102858.56;12248219;19;19918;-87
2024/01/08 07:52:11;;;;;;;;;;;-2.90;49.80;;;-5.07;58.29;102853.34;12246251;19;19907;-87
2024/01/08 07:56:13;;;;;;;;;;;-2.90;50.00;;;-5.03;58.30;102854.34;12248911;19;19978;-87
2024/01/08 08:00:15;;;;;;;;;;;-2.90;49.90;;;-5.00;58.33;102860.41;12248247;19;19990;-87
2024/01/08 08:04:16;;;;;;;;;;;-2.90;49.80;;;-5.02;58.27;102859.50;12246902;19;19930;-87
2024/01/08 08:08:18;;;;;;;;;;;-2.90;49.80;;;-4.99;58.26;102872.38;12247221;19;20346;-87
2024/01/08 08:12:20;;;;;;;;;;;-2.90;50.00;;;-5.12;58.33;102854.81;12246532;19;19990;-87
2024/01/08 08:16:22;;;;;;;;;;;-2.80;50.50;;;-4.83;58.47;102904.50;12247342;19;20241;-87
2024/01/08 08:20:23;;;;;;;;;;;-2.40;50.60;;;-4.81;58.27;102915.59;12248126;19;19926;-87
2024/01/08 08:24:25;;;;;;;;;;;-2.80;49.60;;;-4.94;58.28;102898.94;12247854;19;19923;-87
2024/01/08 08:28:26;;;;;;;;;;;-2.80;49.90;;;-4.83;58.43;102918.88;12245329;19;19947;-86
2024/01/08 08:32:28;;;;;;;;;;;-2.80;50.10;;;-5.25;58.38;102848.31;12243820;19;19919;-86
2024/01/08 08:36:29;;;;;;;;;;;-2.70;50.40;;;-4.77;58.17;102929.34;12246652;19;20004;-86
2024/01/08 08:40:31;;;;;;;;;;;-2.30;50.20;;;-4.78;58.35;102937.78;12247405;19;19923;-86
2024/01/08 08:44:33;;;;;;;;;;;-2.70;50.20;;;-4.75;58.36;102943.00;12247075;19;19919;-87
2024/01/08 08:48:36;;;;;;;;;;;-2.70;50.30;;;-4.86;58.36;102921.28;12242668;19;19918;-87
2024/01/08 08:52:39;;;;;;;;;;;-2.60;50.50;;;-4.65;58.34;102968.09;12247245;19;19914;-87
2024/01/08 08:56:40;;;;;;;;;;;-2.60;50.30;;;-4.62;58.32;102968.22;12246773;19;19978;-87
2024/01/08 09:00:42;;;;;;;;;;;-2.50;50.50;;;-4.78;58.40;102927.59;12246562;19;19974;-87
2024/01/08 09:04:43;;;;;;;;;;;-2.50;49.70;;;-4.59;58.38;102970.03;12244666;19;19915;-87
2024/01/08 09:08:45;;;;;;;;;;;-2.50;49.50;;;-4.59;58.30;102972.59;12243278;19;19927;-87
2024/01/08 09:12:46;;;;;;;;;;;-2.50;49.70;;;-4.63;58.36;102958.00;12246192;19;19919;-89
2024/01/08 09:16:48;;;;;;;;;;;-2.50;49.80;;;-4.77;58.38;102924.25;12243303;19;19923;-88
2024/01/08 09:20:49;;;;;;;;;;;-2.40;49.90;;;-4.45;58.48;102971.53;12248299;19;19938;-88
2024/01/08 09:24:51;;;;;;;;;;;-2.30;50.10;;;-4.50;58.55;102970.47;12258324;19;19923;-87
2024/01/08 09:28:52;;;;;;;;;;;-2.40;49.70;;;-4.41;58.47;102988.69;12254629;19;19943;-88
2024/01/08 09:32:54;;;;;;;;;;;-2.30;50.10;;;-4.53;58.24;102965.25;12256210;19;19918;-87
2024/01/08 09:36:55;;;;;;;;;;;-2.30;50.40;;;-4.55;58.36;102961.75;12253075;19;20329;-87
2024/01/08 09:40:56;;;;;;;;;;;-2.30;49.30;;;-4.38;58.45;102976.06;12258004;19;19911;-87
2024/01/08 09:45:01;;;;;;;;;;;-2.20;49.90;;;-4.27;58.45;102991.81;12256732;19;19919;-87
2024/01/08 09:49:03;;;;;;;;;;;-2.20;49.60;;;-4.52;58.37;102962.72;12255256;19;19918;-87
2024/01/08 09:53:05;;;;;;;;;;;-2.10;49.70;;;-4.21;58.34;102994.66;12256068;19;19934;-87
2024/01/08 09:57:08;;;;;;;;;;;-2.10;49.80;;;-4.09;58.33;103009.59;12252146;19;20289;-87
2024/01/08 10:01:10;;;;;;;;;;;-2.00;49.50;;;-4.17;58.36;102971.00;12253721;19;20344;-86
2024/01/08 10:05:11;;;;;;;;;;;-2.00;50.00;;;-4.04;58.39;102998.78;12250581;19;19925;-88
2024/01/08 10:09:12;;;;;;;;;;;-2.00;49.00;;;-4.04;58.35;102983.47;12253208;19;19986;-88
2024/01/08 10:13:14;;;;;;;;;;;-1.60;49.80;;;-3.96;58.34;102990.56;12254670;19;19923;-87
2024/01/08 10:17:20;;;;;;;;;;;-1.90;49.10;;;-4.03;58.21;102969.03;12253246;19;19926;-88
2024/01/08 10:21:22;;;;;;;;;;;-1.60;49.10;;;-3.80;58.34;102998.91;12251671;19;20349;-88
2024/01/08 10:25:23;;;;;;;;;;;-1.80;49.10;;;-3.87;58.35;102973.94;12253040;19;19926;-88
2024/01/08 10:29:25;;;;;;;;;;;-1.70;49.20;;;-3.63;58.54;103001.28;12253436;19;20255;-88
2024/01/08 10:33:28;;;;;;;;;;;-1.60;49.80;;;-3.51;58.45;103012.00;12251393;19;19915;-88
2024/01/08 10:37:29;;;;;;;;;;;-1.50;48.60;;;-3.48;58.44;103001.00;12250280;19;19927;-88
2024/01/08 10:41:31;;;;;;;;;;;-1.50;47.50;;;-3.42;58.36;102993.59;12251783;19;20334;-88
2024/01/08 10:45:33;;;;;;;;;;;-1.30;46.90;;;-3.47;58.40;102972.97;12252480;19;19919;-88
2024/01/08 10:49:38;;;;;;;;;;;-1.40;47.60;;;-3.54;58.26;102934.38;12251452;19;19919;-88
2024/01/08 10:53:53;;;;;;;;;;;-1.30;49.00;;;-3.20;58.29;102990.19;12250996;19;19922;-87
2024/01/08 10:58:07;;;;;;;;;;;-1.20;47.70;;;-3.15;58.09;102992.09;12251156;19;19922;-88
2024/01/08 11:02:13;;;;;;;;;;;-1.20;47.70;;;-3.22;58.18;102979.88;12250904;19;19989;-87
2024/01/08 11:06:15;;;;;;;;;;;-1.10;45.90;;;-3.32;58.30;102949.72;12245823;19;20254;-89
2024/01/08 11:10:17;;;;;;;;;;;-0.80;46.20;;;-3.02;58.11;102987.47;12247696;19;19928;-87
2024/01/08 11:14:19;;;;;;;;;;;-1.00;48.30;;;-3.00;58.19;102975.59;12248091;19;19922;-87
2024/01/08 11:18:25;;;;;;;;;;;-1.00;48.50;;;-3.23;58.13;102932.19;12246066;19;19934;-87
2024/01/08 11:22:27;;;;;;;;;;;-0.90;47.10;;;-2.83;58.10;102992.44;12247833;19;19915;-88
2024/01/08 11:26:29;;;;;;;;;;;-0.80;48.00;;;-2.83;58.30;102984.75;12246443;19;19918;-88
2024/01/08 11:30:30;;;;;;;;;;;-0.70;48.10;;;-2.70;57.94;102996.28;12246415;19;20243;-87
2024/01/08 11:34:57;;;;;;;;;;;-0.70;47.40;;;-2.62;58.03;103009.34;12247813;19;19918;-88
2024/01/08 11:39:09;;;;;;;;;;;-0.70;45.10;;;-2.69;58.04;102992.94;12248682;19;19927;-88
2024/01/08 11:43:12;;;;;;;;;;;-0.60;47.90;;;-2.69;57.96;102993.78;12246656;19;19915;-87
2024/01/08 11:47:14;;;;;;;;;;;-0.40;47.20;;;-2.58;57.97;102998.44;12246843;19;19907;-87
2024/01/08 11:51:16;;;;;;;;;;;-0.20;48.20;;;-2.50;57.95;103010.66;12247587;19;19932;-87
2024/01/08 11:55:18;;;;;;;;;;;-0.40;46.10;;;-2.52;57.91;103001.19;12249435;19;20329;-87
2024/01/08 11:59:32;;;;;;;;;;;-0.50;47.00;;;-2.52;57.91;102993.53;12247718;19;19926;-88
2024/01/08 12:03:35;;;;;;;;;;;-0.40;47.30;;;-2.45;57.89;103003.16;12247503;19;19922;-87
2024/01/08 12:07:38;;;;;;;;;;;-0.40;47.40;;;-2.44;57.94;102994.66;12248234;19;19915;-87
2024/01/08 12:11:40;;;;;;;;;;;-0.30;47.90;;;-2.53;58.00;102974.75;12245324;19;19915;-88
2024/01/08 12:15:41;;;;;;;;;;;-0.30;47.00;;;-2.22;57.98;103014.19;12247252;19;20265;-88
2024/01/08 12:19:49;;;;;;;;;;;-0.30;46.90;;;-2.17;57.91;103017.78;12250598;19;20124;-88
2024/01/08 12:23:53;;;;;;;;;;;-0.20;47.70;;;-2.15;57.82;103018.72;12249662;19;19915;-87
2024/01/08 12:27:59;;;;;;;;;;;-0.10;48.60;;;-2.16;57.90;103006.75;12243388;19;19907;-87
2024/01/08 12:32:01;;;;;;;;;;;-0.10;44.60;;;-2.17;57.77;102999.88;12242925;19;19923;-87
2024/01/08 12:36:03;;;;;;;;;;;0.00;46.60;;;-2.49;57.75;102916.91;12242619;19;19957;-87
2024/01/08 12:40:06;;;;;;;;;;;0.00;45.30;;;-2.16;57.68;102968.34;12244350;19;20358;-87
2024/01/08 12:44:07;;;;;;;;;;;0.10;46.70;;;-1.90;57.71;103009.28;12244929;19;19925;-87
2024/01/08 12:48:08;;;;;;;;;;;0.10;45.30;;;-1.95;57.84;102986.09;12239548;19;19929;-87
2024/01/08 12:52:11;;;;;;;;;;;0.20;46.10;;;-1.80;57.73;103022.44;12242385;19;19921;-87
2024/01/08 12:56:13;;;;;;;;;;;0.20;46.90;;;-1.76;57.74;103023.41;12247734;19;19915;-87
2024/01/08 13:00:15;;;;;;;;;;;0.20;44.90;;;-2.22;57.59;102945.09;12254784;19;19919;-87
2024/01/08 13:04:18;;;;;;;;;;;0.30;46.40;;;-1.82;57.55;103010.41;12253506;19;19939;-87
2024/01/08 13:08:19;;;;;;;;;;;0.30;46.50;;;-1.72;57.50;103032.09;12250605;19;19982;-87
2024/01/08 13:12:21;;;;;;;;;;;0.60;44.50;;;-1.68;57.53;103033.91;12249841;19;19906;-87
2024/01/08 13:16:22;;;;;;;;;;;0.30;44.80;;;-1.65;57.48;103041.69;12254267;19;20270;-87
2024/01/08 13:20:24;;;;;;;;;;;0.30;46.00;;;-1.69;57.60;103030.50;12254542;19;20349;-87
2024/01/08 13:24:26;;;;;;;;;;;0.40;44.40;;;-1.67;57.49;103038.25;12254162;19;19918;-87
2024/01/08 13:28:27;;;;;;;;;;;0.40;45.10;;;-1.74;57.53;103016.66;12249084;19;19922;-87
2024/01/08 13:32:29;;;;;;;;;;;0.40;45.40;;;-1.75;57.22;103027.72;12252027;19;19911;-87
2024/01/08 13:36:31;;;;;;;;;;;0.40;46.40;;;-1.77;57.49;103019.13;12250624;19;19915;-87
2024/01/08 13:40:33;;;;;;;;;;;0.40;45.50;;;-1.69;57.37;103039.88;12256279;19;19962;-87
2024/01/08 13:44:34;;;;;;;;;;;0.70;46.00;;;-1.70;57.44;103039.00;12252446;19;19922;-87
2024/01/08 13:48:36;;;;;;;;;;;0.40;44.70;;;-1.68;57.22;103050.16;12255580;19;19915;-87
2024/01/08 13:52:37;;;;;;;;;;;0.40;44.80;;;-1.68;57.30;103064.66;12254562;19;19982;-87
2024/01/08 13:56:39;;;;;;;;;;;0.30;44.20;;;-1.71;57.32;103062.00;12254771;19;20329;-88
2024/01/08 14:00:41;;;;;;;;;;;0.70;44.00;;;-1.66;57.25;103073.25;12259101;19;19926;-88
2024/01/08 14:04:43;;;;;;;;;;;0.60;45.10;;;-1.80;57.31;103055.75;12258504;19;19922;-89
2024/01/08 14:08:44;;;;;;;;;;;0.30;46.40;;;-1.94;57.21;103039.06;12253271;19;19929;-87
2024/01/08 14:12:46;;;;;;;;;;;0.60;43.80;;;-1.76;57.18;103077.19;12254931;19;19918;-87
2024/01/08 14:16:47;;;;;;;;;;;0.30;44.50;;;-1.70;57.27;103092.78;12256625;19;19911;-88
2024/01/08 14:20:49;;;;;;;;;;;0.30;45.60;;;-1.83;57.28;103093.19;12259244;19;20286;-87
2024/01/08 14:24:50;;;;;;;;;;;0.30;43.70;;;-1.76;57.05;103117.31;12257298;19;19915;-87
2024/01/08 14:28:52;;;;;;;;;;;0.60;46.60;;;-1.81;57.09;103112.91;12253853;19;19978;-87
2024/01/08 14:32:53;;;;;;;;;;;0.30;44.40;;;-1.86;57.05;103103.34;12257957;19;19911;-87
2024/01/08 14:36:56;;;;;;;;;;;0.20;44.90;;;-1.89;56.99;103119.47;12255774;19;19922;-87
2024/01/08 14:40:58;;;;;;;;;;;0.60;45.10;;;-1.83;57.06;103126.47;12256450;19;19922;-87
2024/01/08 14:44:59;;;;;;;;;;;0.20;44.80;;;-2.18;56.89;103076.59;12255950;19;19915;-87
2024/01/08 14:49:01;;;;;;;;;;;0.10;44.60;;;-1.91;57.05;103126.22;12254743;19;19933;-88
2024/01/08 14:53:04;;;;;;;;;;;0.10;45.60;;;-1.95;56.98;103115.78;12253150;19;19927;-87
2024/01/08 14:57:06;;;;;;;;;;;0.10;46.20;;;-2.01;57.09;103122.44;12250055;19;19915;-88
2024/01/08 15:01:07;;;;;;;;;;;0.10;47.10;;;-2.22;56.92;103102.06;12255388;19;19907;-87
2024/01/08 15:05:09;;;;;;;;;;;0.30;47.50;;;-2.01;57.15;103139.50;12251067;19;20657;-87
2024/01/08 15:09:10;;;;;;;;;;;0.00;47.50;;;-2.00;57.00;103141.22;12250197;19;19910;-87
2024/01/08 15:13:11;;;;;;;;;;;0.10;47.60;;;-2.01;57.14;103147.16;12252349;19;19918;-87
2024/01/08 15:17:13;;;;;;;;;;;0.00;46.80;;;-2.05;57.13;103143.66;12249448;19;19926;-87
2024/01/08 15:21:15;;;;;;;;;;;0.00;47.40;;;-2.28;57.05;103108.66;12249428;19;20002;-87
2024/01/08 15:25:17;;;;;;;;;;;0.00;48.00;;;-2.11;56.95;103129.72;12251529;19;19915;-87
2024/01/08 15:29:18;;;;;;;;;;;0.00;48.10;;;-2.30;57.02;103117.97;12248895;19;19918;-87
2024/01/08 15:33:20;;;;;;;;;;;0.00;48.10;;;-2.12;56.90;103148.47;12253389;19;20265;-87
2024/01/08 15:37:21;;;;;;;;;;;0.00;48.50;;;-2.09;56.93;103162.25;12253219;19;19918;-87
2024/01/08 15:41:23;;;;;;;;;;;-0.10;47.70;;;-2.15;56.92;103169.72;12256147;19;19930;-87
2024/01/08 15:45:25;;;;;;;;;;;-0.10;47.80;;;-2.13;57.02;103174.88;12252203;19;19915;-87
2024/01/08 15:49:27;;;;;;;;;;;-0.10;48.20;;;-2.22;56.96;103172.84;12253295;19;19938;-87
2024/01/08 15:53:29;;;;;;;;;;;0.00;47.50;;;-2.27;57.09;103161.56;12252341;19;19982;-87
2024/01/08 15:57:31;;;;;;;;;;;-0.20;47.70;;;-2.25;57.21;103175.31;12251791;19;19927;-87
2024/01/08 16:01:33;;;;;;;;;;;0.00;48.10;;;-2.24;57.17;103180.50;12254365;19;19907;-87
2024/01/08 16:05:34;;;;;;;;;;;-0.10;48.10;;;-2.28;57.18;103178.63;12253234;19;19927;-86
2024/01/08 16:09:36;;;;;;;;;;;-0.30;48.40;;;-2.22;57.14;103199.31;12250883;19;19927;-87
2024/01/08 16:13:37;;;;;;;;;;;-0.30;48.70;;;-2.39;56.97;103156.00;12253932;19;20419;-86
2024/01/08 16:17:38;;;;;;;;;;;-0.30;48.70;;;-2.23;56.99;103187.34;12249556;19;20368;-87
2024/01/08 16:21:40;;;;;;;;;;;-0.30;48.80;;;-2.47;56.94;103148.03;12251731;19;19919;-87
2024/01/08 16:25:41;;;;;;;;;;;-0.30;48.70;;;-2.64;57.01;103119.28;12250807;19;19919;-87
2024/01/08 16:29:43;;;;;;;;;;;-0.30;48.90;;;-2.34;57.12;103174.97;12253009;19;19990;-87
2024/01/08 16:33:44;;;;;;;;;;;-0.30;48.70;;;-2.48;57.24;103165.09;12266862;19;20007;-86
2024/01/08 16:37:45;;;;;;;;;;;-0.40;48.70;;;-2.76;57.18;103127.34;12260530;19;19923;-86
2024/01/08 16:41:47;;;;;;;;;;;-0.10;48.90;;;-2.57;57.14;103174.94;12265857;19;20526;-86
2024/01/08 16:45:48;;;;;;;;;;;-0.40;48.90;;;-2.38;57.17;103208.91;12249351;19;19918;-86
2024/01/08 16:49:50;;;;;;;;;;;-0.40;48.90;;;-2.42;57.19;103212.19;12262080;19;20420;-86
2024/01/08 16:53:51;;;;;;;;;;;-0.50;48.70;;;-2.57;57.17;103197.97;12263955;19;19922;-86
2024/01/08 16:57:52;;;;;;;;;;;-0.50;48.70;;;-2.58;57.08;103203.03;12258986;19;19947;-87
2024/01/08 17:01:54;;;;;;;;;;;-0.50;48.90;;;-2.68;57.04;103184.75;12251623;19;19948;-86
2024/01/08 17:05:58;;;;;;;;;;;-0.50;49.20;;;-2.47;56.95;103225.66;12260233;19;19926;-87
2024/01/08 17:10:00;;;;;;;;;;;-0.60;49.10;;;-2.51;57.01;103222.91;12255096;19;19919;-86
2024/01/08 17:14:01;;;;;;;;;;;-0.60;49.10;;;-2.59;57.03;103220.06;12259536;19;19943;-86
2024/01/08 17:18:03;;;;;;;;;;;-0.60;49.00;;;-2.61;57.16;103224.25;12258318;19;19923;-87
2024/01/08 17:22:04;;;;;;;;;;;-0.60;48.60;;;-2.94;57.13;103182.88;12262677;19;19915;-87
2024/01/08 17:26:07;;;;;;;;;;;-0.40;49.00;;;-2.71;56.97;103243.44;12252867;19;19930;-86
2024/01/08 17:30:11;;;;;;;;;;;-0.70;49.00;;;-2.72;57.13;103246.84;12256231;19;19924;-86
2024/01/08 17:34:12;;;;;;;;;;;-0.80;49.20;;;-2.85;57.13;103231.81;12252692;19;20330;-87
2024/01/08 17:38:17;;;;;;;;;;;-0.80;49.20;;;-2.71;57.11;103265.59;12250711;19;19911;-86
2024/01/08 17:42:18;;;;;;;;;;;-0.60;49.40;;;-2.76;57.12;103246.63;12250411;19;19926;-86
2024/01/08 17:46:19;;;;;;;;;;;-0.80;49.40;;;-2.73;56.89;103250.22;12254872;19;19907;-86
2024/01/08 17:50:21;;;;;;;;;;;-0.40;49.70;;;-3.13;57.08;103194.91;12254040;19;20242;-86
2024/01/08 17:54:22;;;;;;;;;;;-0.80;49.50;;;-2.79;57.21;103252.50;12256411;19;19911;-86
2024/01/08 17:58:24;;;;;;;;;;;-0.80;49.60;;;-2.87;57.21;103243.66;12251091;19;20294;-87
2024/01/08 18:02:25;;;;;;;;;;;-0.50;49.70;;;-2.82;57.09;103261.75;12250002;19;19975;-86
2024/01/08 18:06:27;;;;;;;;;;;-0.80;49.60;;;-2.74;57.18;103279.13;12252717;19;19915;-86